Tiempo atmosférico en la estación meteorológica de Zamora, Zamora (656 m.)



Fecha
DESCASC
Temp. máxima en grados centígrados (hora)
DESCASC
Temp. mínima en grados centígrados (hora)
DESCASC
Temp. media en grados centígrados
DESCASC
Racha de viento máxima en m/sg (hora)
DESCASC
Velocidad máxima media en intervalos de 10 minutos(hora)
DESCASC
Precipitaciones diarias en mm
DESCASC
Precipitaciones de 00:00 a 06:00 en mm
DESCASC
Precipitaciones de 06:00 a 12:00 en mm
DESCASC
Precipitaciones de 12:00 a 18:00 en mm
DESCASC
Precipitaciones de 18:00 a 24:00 en mm
DESCASC
16-04-2019 21.7 (18:10) 3.5 (08:10) 12.6 6.67 (16:00) 2.78 (16:10) 0 0 0 0 0
15-04-2019 20 (13:10) 10.5 (23:59) 15.3 11.67 (13:10) 5.28 (15:10) 0 0 0 0 0
14-04-2019 21.9 (17:50) 11.3 (08:30) 16.6 5.56 (15:20) 2.5 (14:30) 0 0 0 0 0
13-04-2019 22.4 (17:40) 4.8 (00:00) 13.6 6.39 (14:30) 2.78 (14:30) 0 0 0 0 0
12-04-2019 17.9 (17:40) 1.4 (07:40) 9.6 4.44 (12:30) 2.5 (10:20) 0 0 0 0 0
11-04-2019 16.4 (18:20) 1.9 (00:00) 9.1 5.28 (16:40) 2.5 (17:00) 0 0 0 0 0
10-04-2019 13.2 (13:50) 5.4 (00:00) 9.3 6.94 (13:10) 3.33 (19:20) 1.8 0 0 1.4 0.4
09-04-2019 13.3 (16:10) 6.3 (00:00) 9.8 10.28 (18:50) 3.89 (10:30) 1.4 0 1.4 0 0
08-04-2019 14.6 (17:30) 7.6 (00:00) 11.1 11.11 (18:00) 4.44 (18:10) 0 0 0 0 0
07-04-2019 11.2 (14:20) 3.2 (00:00) 7.2 9.44 (16:00) 3.61 (15:20) 5.8 0.2 0 2 3.6
06-04-2019 11.1 (18:00) 4 (00:00) 7.6 14.44 (10:50) 5 (11:40) 0.4 0 0.4 0 0
05-04-2019 11.8 (17:10) 3.9 (00:00) 7.9 11.67 (19:10) 4.72 (19:10) 2.4 1.6 0 0 0.8
04-04-2019 12.7 (16:30) 0.1 (00:00) 6.4 8.61 (15:30) 3.61 (15:30) 0.4 0 0 0 0.4
03-04-2019 14.7 (16:20) 4.1 (07:10) 9.4 10.28 (15:00) 5.83 (19:30) 0 0 0 0 0
02-04-2019 20.1 (17:50) 7.2 (00:00) 13.7 8.61 (18:20) 3.06 (20:00) 0 0 0 0 0
01-04-2019 20.4 (17:00) 3.5 (00:00) 11.9 6.39 (00:10) 3.33 (00:10) 0 0 0 0 0
31-03-2019 21.2 (16:00) 2.3 (00:00) 11.8 10.28 (22:30) 5.83 (22:20) 0 0 0 0 0
30-03-2019 21 (16:10) 3.7 (00:00) 12.4 6.11 (17:50) 2.78 (18:10) 0 0 0 0 0
29-03-2019 20.8 (16:20) 1.6 (00:00) 11.2 6.67 (21:50) 2.5 (21:50) 0 0 0 0 0
28-03-2019 19.3 (17:00) 2.3 (00:00) 10.8 7.5 (13:00) 4.17 (09:40) 0 0 0 0 0
27-03-2019 20.2 (15:50) 1.3 (00:00) 10.8 10.56 (17:30) 6.67 (18:10) 0 0 0 0 0
26-03-2019 19.6 (16:20) 2.1 (00:00) 10.9 13.61 (18:20) 7.22 (18:00) 0 0 0 0 0
25-03-2019 17.4 (16:10) 4.7 (00:00) 11 11.11 (18:00) 7.22 (19:10) 0 0 0 0 0
24-03-2019 22.1 (16:00) 2.9 (00:00) 12.5 8.06 (14:20) 4.72 (16:50) 0 0 0 0 0
23-03-2019 21.4 (16:10) 0.9 (00:00) 11.1 6.39 (14:40) 3.89 (17:30) 0 0 0 0 0
22-03-2019 18.2 (16:20) 0 (00:00) 9.1 5.83 (15:40) 2.78 (18:10) 0 0 0 0 0
21-03-2019 15.9 (16:40) -0.1 (00:00) 7.9 5.56 (13:20) 3.06 (12:40) 0 0 0 0 0
20-03-2019 14.2 (16:00) 0.3 (00:00) 7.2 10.28 (15:50) 6.11 (11:50) 0 0 0 0 0
19-03-2019 15.8 (15:50) 0.7 (00:00) 8.3 6.94 (16:50) 3.89 (16:50) 0 0 0 0 0

Gráficas

Temp. máximas Temp. mínimas Temp. medias Precipitaciones Rachas de viento máximas Velocidades máximas media en intervalos de 10 minutos

Datos horarios

Fecha y hora oficial Temperatura (ºC) Velocidad del viento (km/h) Dirección del viento Racha (km/h) Dirección de racha Precipitación (mm) Presión (hPa) Tendencia (hPa) Humedad (%)
2019-04-17 23:00:00 11.3 6 Sur 17 Sudoeste 0.2 934.4 2.3 83
2019-04-17 22:00:00 11.7 6 Sudoeste 26 Sudoeste 0.2 934.1 2.9 84
2019-04-17 21:00:00 13 10 Sudoeste 34 Sudoeste 0 933.5 2.2 75
2019-04-17 20:00:00 17.9 9 Sudoeste 28 Sudoeste 0 932.1 0.5 51
2019-04-17 19:00:00 18.5 8 Sudoeste 38 Sudoeste 0 931.2 -0.8 39
2019-04-17 18:00:00 19 13 Sur 37 Sudoeste 0 931.3 -1.4 34
2019-04-17 17:00:00 20.7 15 Sur 34 Sudeste 0 931.6 -1.7 28
2019-04-17 16:00:00 20.4 10 Sur 21 Sudoeste 0 932 -2.3 35
2019-04-17 15:00:00 19.4 8 Sudoeste 28 Sur 0 932.7 -1.7 37
2019-04-17 14:00:00 18.9 11 Sur 32 Sudeste 0 933.3 -0.9 39
2019-04-17 13:00:00 17.4 7 Sudeste 18 Sudeste 0 934.3 0.1 46
2019-04-17 12:00:00 16 4 Este 9 Este 0 934.4 0.2 56
2019-04-17 11:00:00 14 5 Este 12 Este 0 934.2 0.1 60
2019-04-17 10:00:00 10.8 5 Este 12 Este 0 934.2 0.4 71
2019-04-17 09:00:00 8.3 2 Este 10 Este 0 934.2 0.2 76
2019-04-17 08:00:00 7.5 3 Nordeste 5 Nordeste 0 934.1 -0.1 74
2019-04-17 07:00:00 7.9 3 Nordeste 8 Nordeste 0 933.8 -0.8 73
2019-04-17 06:00:00 8.5 3 Nordeste 6 Nordeste 0 934 -1 69
2019-04-17 05:00:00 9 3 Noroeste 6 Nordeste 0 934.2 -1.3 66
2019-04-17 04:00:00 9.5 3 Nordeste 12 Sudeste 0 934.6 -1.7 63
2019-04-17 03:00:00 9.7 7 Sudeste 12 Sudeste 0 935 -1.9 61
2019-04-17 02:00:00 9.4 4 Nordeste 9 Nordeste 0 935.5 -1.6 64
2019-04-17 01:00:00 11.4 3 Este 5 Este 0 936.3 -0.9 59
2019-04-17 00:00:00 13.2 0 Calma 4 Oeste 0 936.9 -0.1 50
2019-04-16 23:00:00 15 2 Sur 5 Oeste 0 937.1 0.1 42
2019-04-16 22:00:00 16.7 2 Noroeste 9 Oeste 0 937.2 -0.2 35
2019-04-16 21:00:00 17.9 3 Oeste 13 Oeste 0 937 -0.7 32
2019-04-16 20:00:00 19.4 6 Oeste 18 Sudoeste 0 937 -1.3 29
2019-04-16 19:00:00 20.9 8 Sudoeste 23 Sur 0 937.4 -2 24
2019-04-16 18:00:00 21.6 8 Sur 20 Sudeste 0 937.7 -2.3 26
2019-04-16 17:00:00 20.7 10 Sur 21 Sur 0 938.3 -2.5 26
2019-04-16 16:00:00 20.3 9 Sur 24 Sur 0 939.4 -2.1 27
2019-04-16 15:00:00 19.6 7 Sudeste 21 Sur 0 940 -2 32
2019-04-16 14:00:00 18 7 Sudeste 18 Este 0 940.8 -1.6 37
2019-04-16 13:00:00 15.8 7 Sur 17 Este 0 941.5 -1.1 49
2019-04-16 12:00:00 13.2 9 Este 13 Este 0 942 -0.7 58
2019-04-16 11:00:00 10.2 5 Nordeste 10 Nordeste 0 942.4 -0.1 74
2019-04-16 10:00:00 7.4 5 Este 9 Este 0 942.6 0.2 85
2019-04-16 09:00:00 5 3 Nordeste 7 Este 0 942.7 0.2 90
2019-04-16 08:00:00 3.6 2 Este 8 Nordeste 0 942.5 0.4 89
2019-04-16 07:00:00 4.6 2 Norte 10 Sudoeste 0 942.4 0.5 86
2019-04-16 06:00:00 6.1 6 Sudoeste 14 Sudoeste 0 942.5 0.4 85
2019-04-16 05:00:00 6.2 5 Sudoeste 11 Sudoeste 0 942.1 0.3 86
2019-04-16 04:00:00 7.5 4 Oeste 12 Oeste 0 941.9 0.1 83
2019-04-16 03:00:00 8.2 6 Sudoeste 17 Oeste 0 942.1 0.5 80
2019-04-16 02:00:00 9 6 Oeste 14 Sudoeste 0 941.8 0.9 77
2019-04-16 01:00:00 9.8 4 Sudoeste 13 Oeste 0 941.8 2.3 74
2019-04-16 00:00:00 10.5 3 Oeste 14 Oeste 0 941.6 2.9 71
2019-04-15 23:00:00 11.6 4 Oeste 16 Oeste 0 940.9 2.8 67
2019-04-15 22:00:00 12.9 6 Oeste 18 Noroeste 0 939.5 1.8 63
2019-04-15 21:00:00 14.1 6 Oeste 18 Noroeste 0 938.7 1.7 60
2019-04-15 20:00:00 14.6 7 Oeste 27 Oeste 0 938.1 1.6 59
2019-04-15 19:00:00 15.2 8 Oeste 26 Oeste 0 937.7 1.7 57
2019-04-15 18:00:00 15.6 10 Oeste 30 Oeste 0 937 2.1 55
2019-04-15 17:00:00 15.7 12 Oeste 38 Sudoeste 0 936.5 1.9 47
2019-04-15 16:00:00 17.2 15 Oeste 40 Sudoeste 0 936 1.4 48
2019-04-15 15:00:00 19.5 15 Oeste 40 Oeste 0 934.9 0.2 46
2019-04-15 14:00:00 19.8 13 Sudoeste 42 Sudoeste 0 934.6 -0.3 50
2019-04-15 13:00:00 19.8 15 Sudoeste 40 Sudoeste 0 934.6 -0.6 48
2019-04-15 12:00:00 19 9 Sudoeste 22 Sudoeste 0 934.7 -0.9 59
2019-04-15 11:00:00 15.5 5 Sudeste 9 Sudeste 0 934.9 -0.7 77
2019-04-15 10:00:00 13.3 3 Sur 10 Sur 0 935.2 -0.9 83
2019-04-15 09:00:00 12.4 4 Este 9 Sudeste 0 935.6 -0.8 84
2019-04-15 08:00:00 11.8 5 Este 9 Este 0 935.6 -1.4 85
2019-04-15 07:00:00 12 3 Nordeste 7 Este 0 936.1 -1.7 84
2019-04-15 06:00:00 12.3 4 Este 7 Este 0 936.4 -2.1 84
2019-04-15 05:00:00 12.6 0 Calma 6 Sur 0 937 -1.8 82
2019-04-15 04:00:00 13.6 0 Calma 11 Sudoeste 0 937.8 -1.2 80
2019-04-15 03:00:00 13.6 3 Sudeste 9 Oeste 0 938.5 -0.8 79
2019-04-15 02:00:00 13.8 2 Noroeste 4 Noroeste 0 938.8 -0.8 78
2019-04-15 01:00:00 14.2 0 Calma 7 Nordeste 0 939 -0.4 74
2019-04-15 00:00:00 15.3 2 Noroeste 4 Noroeste 0 939.3 0.2 74
2019-04-14 23:00:00 16.2 0 Calma 3 Sur 0 939.6 0.1 70
2019-04-14 22:00:00 17.3 2 Nordeste 3 Noroeste 0 939.4 -0.2 66
2019-04-14 21:00:00 18.6 2 Noroeste 9 Sudoeste 0 939.1 -0.6 61
2019-04-14 20:00:00 19.7 4 Oeste 14 Oeste 0 939.5 -0.6 56
2019-04-14 19:00:00 20.4 6 Oeste 17 Oeste 0 939.6 -1.3 53
2019-04-14 18:00:00 21.7 7 Oeste 18 Norte 0 939.7 -1.5 49
2019-04-14 17:00:00 21.3 6 Noroeste 17 Noroeste 0 940.1 -1.1 53
2019-04-14 16:00:00 20.4 8 Oeste 20 Noroeste 0 940.9 -0.5 53
2019-04-14 15:00:00 20.4 5 Oeste 18 Noroeste 0 941.2 -0.6 54
2019-04-14 14:00:00 19.8 6 Noroeste 17 Noroeste 0 941.2 -0.8 54
2019-04-14 13:00:00 19.8 5 Oeste 15 Noroeste 0 941.4 -0.7 57
2019-04-14 12:00:00 17.9 7 Oeste 17 Oeste 0 941.8 -0.1 64
2019-04-14 11:00:00 15.7 7 Oeste 19 Oeste 0 942 0.5 73
2019-04-14 10:00:00 13.6 6 Oeste 14 Oeste 0 942.1 0.7 84
2019-04-14 09:00:00 11.5 3 Noroeste 14 Sudoeste 0 941.9 0.3 90
2019-04-14 08:00:00 11.4 8 Sudoeste 16 Oeste 0 941.5 -0.5 91
2019-04-14 07:00:00 11.5 9 Oeste 17 Sudoeste 0 941.4 -0.7 89
2019-04-14 06:00:00 11.8 6 Oeste 13 Oeste 0 941.6 -0.7 89
2019-04-14 05:00:00 12.2 4 Sudoeste 12 Noroeste 0 942 -0.5 86
2019-04-14 04:00:00 12.4 4 Oeste 16 Oeste 0 942.1 -0.3 82
2019-04-14 03:00:00 13.1 8 Sudoeste 19 Oeste 0 942.3 -0.3 77
2019-04-14 02:00:00 13.8 8 Oeste 16 Sudoeste 0 942.5 0 71
2019-04-14 01:00:00 14.3 6 Oeste 19 Oeste 0 942.4 0.4 68
2019-04-14 00:00:00 15.3 6 Oeste 19 Noroeste 0 942.6 1.1 60
2019-04-13 23:00:00 16.4 5 Oeste 15 Oeste 0 942.5 1.4 52
2019-04-13 22:00:00 17.2 6 Oeste 18 Oeste 0 942 1 47
2019-04-13 21:00:00 18 5 Oeste 15 Oeste 0 941.5 0.5 42
2019-04-13 20:00:00 19.8 5 Oeste 17 Noroeste 0 941.1 -0.2 35
2019-04-13 19:00:00 20.3 6 Oeste 20 Noroeste 0 941 -0.8 32
2019-04-13 18:00:00 21.7 9 Sudoeste 23 Oeste 0 941 -1.2 28
2019-04-13 17:00:00 22.2 5 Sudoeste 17 Oeste 0 941.3 -1.3 25
2019-04-13 16:00:00 21.9 6 Oeste 21 Oeste 0 941.8 -1.4 26
2019-04-13 15:00:00 20.7 4 Norte 23 Sur 0 942.2 -1.3 31
2019-04-13 14:00:00 19.8 4 Sur 12 Sudoeste 0 942.6 -1.2 32
2019-04-13 13:00:00 17.9 5 Sudeste 10 Sur 0 943.2 -0.6 38
2019-04-13 12:00:00 14.3 3 Sudeste 8 Nordeste 0 943.5 -0.2 49
2019-04-13 11:00:00 11.3 3 Nordeste 6 Nordeste 0 943.8 0.3 55
2019-04-13 10:00:00 7.2 3 Norte 9 Norte 0 943.8 0.9 73
2019-04-13 09:00:00 5.5 4 Nordeste 7 Norte 0 943.7 1.1 79
2019-04-13 08:00:00 4.9 3 Norte 8 Nordeste 0 943.5 1 78
2019-04-13 07:00:00 4.9 4 Nordeste 9 Este 0 942.9 0.2 76
2019-04-13 06:00:00 5.2 4 Este 6 Este 0 942.6 -0.2 74
2019-04-13 05:00:00 5.7 2 Nordeste 5 Nordeste 0 942.5 -0.6 73
2019-04-13 04:00:00 6 2 Norte 5 Nordeste 0 942.7 -0.4 71
2019-04-13 03:00:00 6.7 3 Sur 4 Sur 0 942.8 0.1 70
2019-04-13 02:00:00 7.6 0 Calma 4 Norte 0 943.1 0.3 68
2019-04-13 01:00:00 9 2 Noroeste 4 Oeste 0 943.1 0.9 57
2019-04-13 00:00:00 10.6 3 Noroeste 6 Oeste 0 942.7 1.1 52
2019-04-12 23:00:00 12.3 5 Sur 9 Sudeste 0 942.8 1.1 42
2019-04-12 22:00:00 13.3 4 Sudeste 9 Sur 0 942.2 0.4 40
2019-04-12 21:00:00 14.6 4 Sudeste 10 Sur 0 941.6 -0.3 35
2019-04-12 20:00:00 15.9 6 Sudeste 12 Nordeste 0 941.7 -0.6 33
2019-04-12 19:00:00 17.6 6 Norte 13 Norte 0 941.8 -1.2 31
2019-04-12 18:00:00 17.8 7 Norte 15 Norte 0 941.9 -1.5 34
2019-04-12 17:00:00 17.4 6 Noroeste 14 Norte 0 942.3 -1.5 34
2019-04-12 16:00:00 17.3 5 Nordeste 14 Norte 0 943 -1.5 39
2019-04-12 15:00:00 15.8 4 Norte 15 Norte 0 943.4 -1.4 42
2019-04-12 14:00:00 14.6 4 Sur 14 Nordeste 0 943.8 -1.2 45
2019-04-12 13:00:00 13.4 4 Este 16 Este 0 944.5 -0.3 53
2019-04-12 12:00:00 11.2 5 Sudeste 14 Nordeste 0 944.8 0.1 64
2019-04-12 11:00:00 8.3 6 Nordeste 14 Nordeste 0 945 0.7 76
2019-04-12 10:00:00 5.2 8 Nordeste 12 Nordeste 0 944.8 0.8 87
2019-04-12 09:00:00 2.2 6 Norte 10 Nordeste 0 944.7 0.5 94
2019-04-12 08:00:00 1.4 3 Nordeste 7 Norte 0 944.3 0.1 94
2019-04-12 07:00:00 1.8 7 Nordeste 13 Este 0 944 -0.1 93
2019-04-12 06:00:00 2.6 4 Nordeste 7 Nordeste 0 944.2 -0.2 91
2019-04-12 05:00:00 3.2 3 Nordeste 6 Nordeste 0 944.2 0 89
2019-04-12 04:00:00 4 6 Nordeste 11 Nordeste 0 944.1 0.1 85
2019-04-12 03:00:00 5.2 3 Nordeste 9 Este 0 944.4 0.6 82
2019-04-12 02:00:00 5.9 4 Nordeste 12 Nordeste 0 944.2 0.7 79
2019-04-12 01:00:00 7.4 7 Norte 12 Norte 0 944 0.9 70
2019-04-12 00:00:00 9.2 4 Nordeste 10 Norte 0 943.8 1.2 67
2019-04-11 23:00:00 11.2 2 Norte 4 Sudeste 0 943.5 0.9 55
2019-04-11 22:00:00 12.4 2 Sur 5 Sur 0 943.1 0.4 46
2019-04-11 21:00:00 13.2 2 Norte 8 Noroeste 0 942.6 -0.1 44
2019-04-11 20:00:00 14.3 5 Noroeste 13 Norte 0 942.6 -0.2 41
2019-04-11 19:00:00 15 5 Noroeste 15 Norte 0 942.7 -0.5 39
2019-04-11 18:00:00 15.7 8 Noroeste 18 Norte 0 942.7 -1 37
2019-04-11 17:00:00 14.9 9 Norte 19 Norte 0 942.8 -1.2 38
2019-04-11 16:00:00 15 6 Noroeste 14 Norte 0 943.2 -1.2 40
2019-04-11 15:00:00 15.1 5 Norte 18 Norte 0 943.7 -0.9 40
2019-04-11 14:00:00 13.7 4 Este 13 Norte 0 944 -0.6 47
2019-04-11 13:00:00 11.5 7 Norte 11 Norte 0 944.4 0.1 54
2019-04-11 12:00:00 10.8 6 Este 12 Este 0 944.6 0.3 61
2019-04-11 11:00:00 8.5 4 Nordeste 6 Nordeste 0 944.6 0.6 70
2019-04-11 10:00:00 5.8 3 Nordeste 6 Sur 0 944.3 0.7 81
2019-04-11 09:00:00 2.4 3 Norte 7 Nordeste 0 944.3 0.8 93
2019-04-11 08:00:00 1.9 0 Calma 6 Nordeste 0 944 0.4 91
2019-04-11 07:00:00 2.6 2 Nordeste 5 Norte 0 943.6 0.3 89
2019-04-11 06:00:00 3.1 2 Oeste 5 Noroeste 0 943.5 0.3 90
2019-04-11 05:00:00 3.6 3 Norte 5 Nordeste 0 943.6 0.1 90
2019-04-11 04:00:00 4.6 3 Oeste 7 Oeste 0 943.3 0 89
2019-04-11 03:00:00 5.6 5 Nordeste 8 Nordeste 0 943.2 0.1 88
2019-04-11 02:00:00 6.3 2 Este 9 Norte 0 943.5 0.9 85
2019-04-11 01:00:00 6 4 Norte 10 Norte 0 943.3 1.7 84
2019-04-11 00:00:00 6.7 6 Norte 13 Nordeste 0 943.1 2.8 84
2019-04-10 23:00:00 8.6 7 Nordeste 13 Norte 0 942.6 3.1 78
2019-04-10 22:00:00 9.7 4 Noroeste 12 Sudoeste 0 941.6 2.7 79
2019-04-10 21:00:00 10.6 4 Oeste 23 Nordeste 0.4 940.3 1.7 74
2019-04-10 20:00:00 12.6 6 Nordeste 23 Norte 0 939.5 0.3 59
2019-04-10 19:00:00 13 8 Norte 13 Norte 0 938.9 0.1 56
2019-04-10 18:00:00 11.9 2 Sur 9 Noroeste 0 938.6 -0.1 66
2019-04-10 17:00:00 10.3 4 Sur 22 Sudoeste 0.6 939.2 0.7 75
2019-04-10 16:00:00 10.5 7 Oeste 17 Oeste 0 938.8 -0.1 70
2019-04-10 15:00:00 10.9 5 Noroeste 25 Oeste 0.8 938.7 -0.2 71
2019-04-10 14:00:00 12.8 6 Noroeste 25 Norte 0 938.5 -0.3 58
2019-04-10 13:00:00 12.6 8 Noroeste 23 Norte 0 938.9 0.3 50
2019-04-10 12:00:00 11.3 8 Oeste 23 Oeste 0 938.9 0.3 57
2019-04-10 11:00:00 9.7 7 Oeste 24 Oeste 0 938.8 0.7 66
2019-04-10 10:00:00 7.3 9 Oeste 23 Sudoeste 0 938.6 0.8 78
2019-04-10 09:00:00 5.8 7 Oeste 16 Oeste 0 938.6 1.2 86
2019-04-10 08:00:00 5.4 7 Oeste 22 Sudoeste 0 938.1 0.4 86
2019-04-10 07:00:00 5.8 8 Oeste 22 Oeste 0 937.8 0 84
2019-04-10 06:00:00 6.4 6 Sudoeste 18 Oeste 0 937.4 -0.5 85
2019-04-10 05:00:00 6.8 6 Sudoeste 23 Oeste 0 937.7 -0.3 84
2019-04-10 04:00:00 6.4 8 Sudoeste 22 Oeste 0 937.8 -0.1 86
2019-04-10 03:00:00 5.8 7 Oeste 19 Oeste 0 937.9 0.1 86
2019-04-10 02:00:00 6.1 5 Oeste 21 Oeste 0 938 0.4 85
2019-04-10 01:00:00 6.7 10 Oeste 23 Oeste 0 937.9 0.6 84
2019-04-10 00:00:00 7.3 6 Oeste 26 Oeste 0 937.8 0.9 83
2019-04-09 23:00:00 7.9 9 Oeste 28 Oeste 0 937.6 1.5 80
2019-04-09 22:00:00 8.5 8 Oeste 24 Oeste 0 937.3 1.3 75
2019-04-09 21:00:00 9.2 9 Oeste 32 Oeste 0 936.9 1.1 72
2019-04-09 20:00:00 10.8 10 Oeste 27 Noroeste 0 936.1 0.2 59
2019-04-09 19:00:00 10.9 11 Oeste 37 Sudoeste 0 936 -0.1 63
2019-04-09 18:00:00 12.3 12 Oeste 31 Oeste 0 935.8 -0.4 54
2019-04-09 17:00:00 12.6 14 Oeste 29 Oeste 0 935.9 -0.5 51
2019-04-09 16:00:00 13 10 Oeste 30 Oeste 0 936.1 -0.3 51
2019-04-09 15:00:00 12.1 10 Oeste 29 Sudoeste 0 936.2 0 53
2019-04-09 14:00:00 9.9 10 Oeste 32 Noroeste 0 936.4 0.5 66
2019-04-09 13:00:00 7.6 9 Oeste 31 Noroeste 0 936.4 1 78
2019-04-09 12:00:00 7.2 12 Oeste 31 Sudoeste 0.6 936.2 0.6 83
2019-04-09 11:00:00 7.1 10 Sudoeste 31 Sudoeste 0.2 935.9 0.6 85
2019-04-09 10:00:00 7.7 11 Sudoeste 26 Sudoeste 0 935.4 -0.1 83
2019-04-09 09:00:00 6.7 9 Sudoeste 20 Sudoeste 0 935.6 0.1 86
2019-04-09 08:00:00 6.7 10 Sudoeste 22 Sudoeste 0.4 935.3 -0.6 88
2019-04-09 07:00:00 6.5 8 Sudoeste 22 Oeste 0.2 935.5 -0.6 89
2019-04-09 06:00:00 6.6 6 Sudoeste 19 Sudoeste 0 935.5 -1.1 84
2019-04-09 05:00:00 6.3 6 Sudoeste 21 Sudoeste 0 935.9 -0.7 83
2019-04-09 04:00:00 6.6 9 Sudoeste 21 Oeste 0 936.1 -0.7 83
2019-04-09 03:00:00 6.4 8 Sudoeste 17 Sudoeste 0 936.6 -0.2 84
2019-04-09 02:00:00 6.8 7 Sudoeste 17 Oeste 0 936.6 -0.2 82
2019-04-09 01:00:00 6.9 8 Sudoeste 20 Sudoeste 0 936.8 0.4 82
2019-04-09 00:00:00 7.6 9 Sudoeste 20 Sudoeste 0 936.8 0.7 78
2019-04-08 23:00:00 8.6 6 Sudoeste 22 Sudoeste 0 936.8 0.7 73
2019-04-08 22:00:00 8.9 5 Sudoeste 12 Oeste 0 936.4 0.3 71
2019-04-08 21:00:00 9.4 4 Sudoeste 16 Noroeste 0 936.1 -0.2 66
2019-04-08 20:00:00 10.9 9 Oeste 25 Sudoeste 0 936.1 -0.1 61
2019-04-08 19:00:00 10.9 9 Sudoeste 34 Sudoeste 0 936.1 -1 62
2019-04-08 18:00:00 13.2 12 Sudoeste 40 Sudoeste 0 936.3 -0.6 49
2019-04-08 17:00:00 13.6 8 Oeste 33 Oeste 0 936.2 -0.7 45
2019-04-08 16:00:00 12.8 11 Oeste 31 Noroeste 0 937.1 0.2 57
2019-04-08 15:00:00 13.3 10 Oeste 31 Oeste 0 936.9 -0.4 43
2019-04-08 14:00:00 12.9 8 Oeste 24 Sudoeste 0 936.9 0.3 51
2019-04-08 13:00:00 12.7 8 Oeste 23 Oeste 0 936.9 0.5 51
2019-04-08 12:00:00 11.1 6 Oeste 20 Noroeste 0 937.3 1.2 62
2019-04-08 11:00:00 10.7 7 Oeste 27 Oeste 0 936.6 1.2 68
2019-04-08 10:00:00 9.3 8 Oeste 24 Sudoeste 0 936.4 1.4 81
2019-04-08 09:00:00 8.3 7 Oeste 15 Oeste 0 936.1 1.9 88
2019-04-08 08:00:00 8.3 7 Oeste 25 Oeste 0 935.4 1.3 88
2019-04-08 07:00:00 8.6 6 Oeste 21 Sudoeste 0 935 1 87
2019-04-08 06:00:00 9.2 8 Oeste 22 Oeste 0 934.2 0.2 90
2019-04-08 05:00:00 9.5 9 Sudoeste 27 Oeste 0 934.1 -0.1 91
2019-04-08 04:00:00 9.5 8 Sudoeste 19 Sudoeste 0 934 -0.5 89
2019-04-08 03:00:00 9.3 10 Sudoeste 23 Sudoeste 0 934 -0.4 88
2019-04-08 02:00:00 9.4 8 Sudoeste 19 Sur 0 934.2 -0.5 89
2019-04-08 01:00:00 9.7 8 Sudoeste 22 Sudoeste 0 934.5 -0.2 88
2019-04-08 00:00:00 9.6 10 Sudoeste 28 Sudoeste 0.2 934.4 -0.3 91
2019-04-07 23:00:00 9.1 8 Sudoeste 15 Sudoeste 0.4 934.7 -0.2 96
2019-04-07 22:00:00 8 4 Sur 14 Sudeste 0.4 934.7 -0.5 96
2019-04-07 21:00:00 8.1 8 Sur 14 Sur 1 934.7 -0.5 94
2019-04-07 20:00:00 8.2 5 Sudeste 17 Sur 0.8 934.9 -0.6 92
2019-04-07 19:00:00 8.1 7 Sur 13 Sur 0.8 935.2 0.1 87
2019-04-07 18:00:00 8 3 Oeste 14 Oeste 1 935.2 0.2 85
2019-04-07 17:00:00 8.2 7 Oeste 26 Sudoeste 1 935.5 0.2 79
2019-04-07 16:00:00 10.6 12 Oeste 34 Oeste 0 935.1 -0.1 65
2019-04-07 15:00:00 11 10 Sudoeste 24 Sudoeste 0 935 -0.1 54
2019-04-07 14:00:00 10.9 8 Oeste 22 Oeste 0 935.3 0.5 52
2019-04-07 13:00:00 10.4 7 Oeste 19 Sudoeste 0 935.2 0.8 55
2019-04-07 12:00:00 8.8 7 Oeste 17 Oeste 0 935.1 1.3 63
2019-04-07 11:00:00 7.9 8 Oeste 18 Sudoeste 0 934.8 1.7 66
2019-04-07 10:00:00 5.8 5 Oeste 13 Noroeste 0 934.4 2.1 81
2019-04-07 09:00:00 3.7 3 Oeste 12 Oeste 0 933.8 2.2 91
2019-04-07 08:00:00 3.3 5 Oeste 14 Sudoeste 0 933.1 2 90
2019-04-07 07:00:00 3.4 6 Oeste 15 Sudoeste 0 932.3 1.3 90
2019-04-07 06:00:00 3.7 9 Oeste 22 Sudoeste 0 931.6 0.8 89
2019-04-07 05:00:00 3.6 7 Oeste 19 Sudoeste 0 931.1 0.8 90
2019-04-07 04:00:00 3.7 8 Oeste 17 Sudoeste 0 931 0.7 89
2019-04-07 03:00:00 4 6 Oeste 19 Oeste 0 930.8 0.9 89
2019-04-07 02:00:00 4.3 7 Oeste 21 Oeste 0.2 930.3 0.6 89
2019-04-07 01:00:00 5 6 Oeste 21 Oeste 0 930.3 1.3 85
2019-04-07 00:00:00 5.8 5 Oeste 19 Oeste 0 929.9 1.9 77
2019-04-06 23:00:00 5.4 6 Oeste 17 Sudoeste 0 929.7 2.2 77
2019-04-06 22:00:00 5.9 5 Oeste 27 Sudoeste 0 929 2.5 74
2019-04-06 21:00:00 7.8 9 Oeste 28 Sudoeste 0 928 2.2 58
2019-04-06 20:00:00 8.9 12 Oeste 35 Sudoeste 0 927.5 2 53
2019-04-06 19:00:00 9.6 10 Oeste 32 Oeste 0 926.5 0.8 56
2019-04-06 18:00:00 10.8 12 Oeste 45 Noroeste 0 925.8 0.2 50
2019-04-06 17:00:00 9.5 12 Oeste 48 Sudoeste 0 925.5 0.3 58
2019-04-06 16:00:00 8.1 12 Oeste 39 Oeste 0 925.7 0.6 67
2019-04-06 15:00:00 7.6 17 Oeste 44 Oeste 0 925.6 0.5 71
2019-04-06 14:00:00 7.5 17 Sudoeste 41 Oeste 0 925.2 0.6 72
2019-04-06 13:00:00 6.4 15 Sudoeste 41 Sudoeste 0 925.1 0.4 77
2019-04-06 12:00:00 5.9 17 Sudoeste 40 Sudoeste 0 925.1 0.3 77
2019-04-06 11:00:00 5 15 Sudoeste 52 Sudoeste 0.2 924.6 0 83
2019-04-06 10:00:00 5 13 Sudoeste 36 Sudoeste 0 924.7 0.1 80
2019-04-06 09:00:00 4.3 14 Sudoeste 29 Sudoeste 0 924.8 0 84
2019-04-06 08:00:00 4.7 10 Sudoeste 23 Sudoeste 0 924.6 -0.5 85
2019-04-06 07:00:00 4.7 12 Sudoeste 27 Sudoeste 0.2 924.6 -0.7 87
2019-04-06 06:00:00 4.6 9 Sudoeste 22 Sudoeste 0 924.8 -0.9 88
2019-04-06 05:00:00 4.1 11 Sudoeste 24 Sudoeste 0 925.1 -0.7 85
2019-04-06 04:00:00 4.4 10 Sudoeste 24 Oeste 0 925.3 -0.3 85
2019-04-06 03:00:00 4.2 9 Oeste 24 Sudoeste 0 925.7 0.1 86
2019-04-06 02:00:00 4 10 Oeste 24 Sudoeste 0 925.8 0.5 87
2019-04-06 01:00:00 4 10 Oeste 24 Sudoeste 0 925.6 0.7 88
2019-04-06 00:00:00 4 10 Sudoeste 23 Sudoeste 0 925.6 1.7 90
2019-04-05 23:00:00 4.2 9 Oeste 24 Sudoeste 0 925.3 1.9 88
2019-04-05 22:00:00 4.9 6 Oeste 25 Oeste 0.8 924.9 2.2 85
2019-04-05 21:00:00 6.5 9 Sudoeste 23 Oeste 0 923.9 1.8 72
2019-04-05 20:00:00 7.5 10 Sudoeste 42 Sudoeste 0 923.4 1.2 63
2019-04-05 19:00:00 10.3 10 Oeste 37 Oeste 0 922.7 0.3 50
2019-04-05 18:00:00 11.5 10 Sudoeste 26 Sudoeste 0 922.1 -0.9 37
2019-04-05 17:00:00 11.5 9 Oeste 23 Oeste 0 922.2 -0.8 39
2019-04-05 16:00:00 11.4 7 Oeste 29 Oeste 0 922.4 -0.7 40
2019-04-05 15:00:00 9.2 8 Sudoeste 25 Oeste 0 923 -0.5 51
2019-04-05 14:00:00 8.7 9 Oeste 22 Noroeste 0 923 0 52
2019-04-05 13:00:00 8.5 10 Oeste 22 Sudoeste 0 923.1 0.5 53
2019-04-05 12:00:00 6.5 8 Sudoeste 21 Sudoeste 0 923.5 1.2 68
2019-04-05 11:00:00 6.2 7 Oeste 22 Oeste 0 923 1.1 70
2019-04-05 10:00:00 5.4 7 Oeste 21 Sudoeste 0 922.6 1.2 78
2019-04-05 09:00:00 4.4 5 Sudoeste 22 Oeste 0 922.3 0.9 85
2019-04-05 08:00:00 4.3 6 Oeste 17 Oeste 0 921.9 0.7 89
2019-04-05 07:00:00 4.6 5 Sudoeste 23 Sudoeste 0 921.4 -0.2 88
2019-04-05 06:00:00 4.8 12 Oeste 27 Sudoeste 0.2 921.4 -0.7 86
2019-04-05 05:00:00 5.9 11 Sudoeste 30 Sudoeste 0 921.2 -1.3 87
2019-04-05 04:00:00 5.9 12 Sudoeste 23 Sudoeste 0 921.6 -1.4 88
2019-04-05 03:00:00 5.7 6 Sudoeste 21 Sudoeste 0.8 922.1 -1.5 91
2019-04-05 02:00:00 5.7 8 Sudoeste 23 Sudoeste 0.6 922.5 -2 87
2019-04-05 01:00:00 6 6 Sur 19 Sudoeste 0 923 -1.7 83
2019-04-05 00:00:00 5.8 6 Sudoeste 21 Sudoeste 0 923.6 -1.4 85
2019-04-04 23:00:00 6.1 6 Sudoeste 17 Sudoeste 0 924.5 -1.1 83
2019-04-04 22:00:00 6.2 6 Oeste 21 Sudoeste 0.2 924.7 -1.2 82
2019-04-04 21:00:00 6.4 6 Oeste 18 Oeste 0.2 925 -0.8 81
2019-04-04 20:00:00 7.4 8 Oeste 23 Oeste 0 925.6 -0.4 72
2019-04-04 19:00:00 8.8 11 Oeste 28 Sudoeste 0 925.9 -0.7 57
2019-04-04 18:00:00 10.4 10 Oeste 27 Oeste 0 925.8 -1.6 39
2019-04-04 17:00:00 11.2 11 Sudoeste 29 Sudoeste 0 926 -2.4 36
2019-04-04 16:00:00 11.7 10 Oeste 31 Oeste 0 926.6 -2.7 35
2019-04-04 15:00:00 11.7 10 Sudoeste 26 Oeste 0 927.4 -2.3 35
2019-04-04 14:00:00 10.2 9 Sudoeste 25 Noroeste 0 928.4 -1.5 41
2019-04-04 13:00:00 9.3 8 Sudoeste 20 Sudoeste 0 929.3 -0.9 44
2019-04-04 12:00:00 8.1 6 Noroeste 21 Sudoeste 0 929.7 -0.5 47
2019-04-04 11:00:00 6.4 7 Sudoeste 16 Sudoeste 0 929.9 0 56
2019-04-04 10:00:00 2.8 6 Oeste 17 Sudoeste 0 930.2 0.5 69
2019-04-04 09:00:00 0.7 5 Sudoeste 16 Sudoeste 0 930.2 0.2 75
2019-04-04 08:00:00 0.3 8 Sudoeste 20 Sudoeste 0 929.9 -0.3 77
2019-04-04 07:00:00 0.6 6 Oeste 14 Oeste 0 929.7 -0.9 74
2019-04-04 06:00:00 0.7 5 Oeste 10 Noroeste 0 930 -1 72
2019-04-04 05:00:00 0.9 4 Oeste 12 Noroeste 0 930.2 -1.4 69
2019-04-04 04:00:00 1.8 5 Oeste 13 Sudoeste 0 930.6 -1.2 65
2019-04-04 03:00:00 2.7 4 Oeste 13 Noroeste 0 931 -1.2 58
2019-04-04 02:00:00 3.3 5 Noroeste 15 Oeste 0 931.6 -0.5 55
2019-04-04 01:00:00 4.3 7 Noroeste 18 Noroeste 0 931.8 0.3 51
2019-04-04 00:00:00 4.8 5 Noroeste 14 Noroeste 0 932.2 1.3 52
2019-04-03 23:00:00 5.3 8 Noroeste 22 Norte 0 932.1 1.6 53
2019-04-03 22:00:00 6.2 13 Noroeste 26 Noroeste 0 931.5 1.1 44
2019-04-03 21:00:00 8.1 16 Norte 35 Noroeste 0 930.9 0.7 36
2019-04-03 20:00:00 10.2 18 Norte 36 Noroeste 0 930.5 0 35
2019-04-03 19:00:00 12.2 16 Norte 28 Norte 0 930.4 -0.8 32
2019-04-03 18:00:00 13.9 10 Noroeste 30 Norte 0 930.2 -1.6 28
2019-04-03 17:00:00 14 10 Noroeste 30 Noroeste 0 930.5 -2 27
2019-04-03 16:00:00 13.5 11 Noroeste 29 Norte 0 931.2 -2.1 27
2019-04-03 15:00:00 13.1 20 Norte 37 Norte 0 931.8 -2.1 26
2019-04-03 14:00:00 12.7 7 Oeste 21 Noroeste 0 932.5 -1.7 34
2019-04-03 13:00:00 11 7 Noroeste 28 Norte 0 933.3 -1.1 42
2019-04-03 12:00:00 10.2 8 Noroeste 23 Norte 0 933.9 -0.7 47
2019-04-03 11:00:00 8.3 5 Norte 13 Noroeste 0 934.2 -0.2 59
2019-04-03 10:00:00 5.8 5 Oeste 12 Noroeste 0 934.4 -0.3 74
2019-04-03 09:00:00 4.7 4 Oeste 13 Norte 0 934.6 -0.2 78
2019-04-03 08:00:00 4.4 5 Oeste 14 Oeste 0 934.4 -0.8 80
2019-04-03 07:00:00 4.2 3 Noroeste 17 Oeste 0 934.7 -1.4 79
2019-04-03 06:00:00 6 5 Sudoeste 13 Sudoeste 0 934.8 -1.9 75
2019-04-03 05:00:00 6.4 2 Norte 8 Sudoeste 0 935.2 -1.9 69
2019-04-03 04:00:00 7.6 4 Oeste 10 Noroeste 0 936.1 -1.2 63
2019-04-03 03:00:00 7.9 3 Oeste 7 Norte 0 936.7 -0.8 58
2019-04-03 02:00:00 8.4 0 Calma 8 Sur 0 937.1 -0.4 57
2019-04-03 01:00:00 9.3 0 Calma 8 Noroeste 0 937.3 0.4 53
2019-04-03 00:00:00 10 3 Noroeste 10 Norte 0 937.5 1.1 48
2019-04-02 23:00:00 11.7 6 Norte 17 Oeste 0 937.5 1.4 41
2019-04-02 22:00:00 13.6 6 Oeste 22 Oeste 0 936.9 0.7 38
2019-04-02 21:00:00 15.5 9 Oeste 25 Oeste 0 936.4 0.1 34
2019-04-02 20:00:00 17.2 11 Oeste 27 Oeste 0 936.1 -0.8 30
2019-04-02 19:00:00 18.9 8 Oeste 31 Sur 0 936.2 -1.4 29
2019-04-02 18:00:00 19.8 9 Oeste 26 Oeste 0 936.3 -1.9 26
2019-04-02 17:00:00 18.6 6 Noroeste 20 Oeste 0 936.9 -2 34
2019-04-02 16:00:00 19.3 7 Oeste 18 Noroeste 0 937.6 -2.1 30
2019-04-02 15:00:00 18.2 6 Oeste 15 Oeste 0 938.2 -1.8 39
2019-04-02 14:00:00 16.8 6 Noroeste 22 Norte 0 938.9 -1.3 47
2019-04-02 13:00:00 15.2 5 Sudoeste 12 Oeste 0 939.7 0.1 52
2019-04-02 12:00:00 11.8 3 Sudoeste 10 Noroeste 0 940 0.6 61
2019-04-02 11:00:00 9.8 8 Norte 15 Norte 0 940.2 1 68
2019-04-02 10:00:00 8.6 3 Noroeste 8 Noroeste 0 939.6 0.8 74
2019-04-02 09:00:00 7.4 3 Noroeste 9 Noroeste 0 939.4 0.7 80
2019-04-02 08:00:00 7.3 3 Noroeste 8 Norte 0 939.2 0.3 80
2019-04-02 07:00:00 7.4 3 Noroeste 9 Sudoeste 0 938.8 -0.4 81
2019-04-02 06:00:00 8.7 3 Oeste 11 Sudoeste 0 938.7 -0.6 78
2019-04-02 05:00:00 9.3 3 Oeste 11 Noroeste 0 938.9 -0.2 75
2019-04-02 04:00:00 10 3 Oeste 10 Noroeste 0 939.2 0.3 72
2019-04-02 03:00:00 10.4 2 Noroeste 14 Oeste 0 939.3 0.5 67
2019-04-02 02:00:00 11.5 6 Oeste 15 Oeste 0 939.1 0.5 64
2019-04-02 01:00:00 11.9 4 Oeste 13 Noroeste 0 938.9 0.8 60
2019-04-02 00:00:00 12.2 5 Oeste 15 Sudoeste 0 938.8 1.7 56
2019-04-01 23:00:00 12.8 6 Oeste 18 Sudoeste 0 938.6 2 55
2019-04-01 22:00:00 13.8 9 Sudoeste 21 Sudoeste 0 938.1 1.9 50
2019-04-01 21:00:00 14.8 4 Noroeste 18 Oeste 0 937.1 0.9 46
2019-04-01 20:00:00 17 5 Noroeste 22 Norte 0 936.6 0.2 40
2019-04-01 19:00:00 19.6 4 Norte 11 Este 0 936.2 -0.6 27
2019-04-01 18:00:00 19.8 6 Norte 23 Nordeste 0 936.2 -1.3 27
2019-04-01 17:00:00 20.4 4 Sudoeste 11 Sur 0 936.4 -1.6 27
2019-04-01 16:00:00 18.8 7 Este 12 Este 0 936.8 -1.8 37
2019-04-01 15:00:00 17.6 5 Sudoeste 13 Nordeste 0 937.5 -1.4 37
2019-04-01 14:00:00 16.5 6 Este 13 Este 0 938 -0.9 46
2019-04-01 13:00:00 14.6 6 Este 14 Nordeste 0 938.6 0.1 52
2019-04-01 12:00:00 11.9 7 Este 13 Este 0 938.9 0.8 62
2019-04-01 11:00:00 9 6 Nordeste 12 Nordeste 0 938.9 1.1 72
2019-04-01 10:00:00 6 6 Nordeste 11 Nordeste 0 938.5 0.9 84
2019-04-01 09:00:00 3.8 4 Nordeste 9 Nordeste 0 938.1 0.9 89
2019-04-01 08:00:00 3.6 5 Norte 14 Norte 0 937.8 0.8 89
2019-04-01 07:00:00 3.9 6 Norte 10 Norte 0 937.6 0.6 87
2019-04-01 06:00:00 4.6 5 Norte 10 Norte 0 937.2 -0.1 84
2019-04-01 05:00:00 6 4 Nordeste 13 Nordeste 0 937 0.1 79
2019-04-01 04:00:00 7.6 8 Nordeste 15 Nordeste 0 937 0.3 74
2019-04-01 03:00:00 8.5 5 Nordeste 14 Sudeste 0 937.3 1.1 75
2019-04-01 02:00:00 9.7 6 Sudeste 17 Sudeste 0 936.9 0.7 69
2019-04-01 01:00:00 11 11 Sudeste 23 Este 0 936.7 1 67
2019-04-01 00:00:00 12.5 11 Este 29 Este 0 936.2 1.4 63
2019-03-31 23:00:00 12.9 18 Este 37 Este 0 936.2 1.5 50
2019-03-31 22:00:00 13.5 17 Este 33 Este 0 935.7 1.1 50
2019-03-31 21:00:00 14.6 6 Nordeste 24 Nordeste 0 934.8 0.2 42
2019-03-31 20:00:00 16.4 12 Nordeste 28 Nordeste 0 934.7 -0.2 35
2019-03-31 19:00:00 17.7 15 Nordeste 26 Nordeste 0 934.6 -0.6 31
2019-03-31 18:00:00 19.5 12 Norte 32 Nordeste 0 934.6 -1.7 28
2019-03-31 17:00:00 19.2 10 Este 23 Este 0 934.9 -2.3 22
2019-03-31 16:00:00 21.2 6 Este 23 Nordeste 0 935.2 -2.7 26
2019-03-31 15:00:00 18.9 10 Nordeste 22 Nordeste 0 936.3 -2 32
2019-03-31 14:00:00 17.6 11 Norte 21 Nordeste 0 937.2 -1.3 36
2019-03-31 13:00:00 15.4 10 Nordeste 18 Nordeste 0 937.9 -0.4 42
2019-03-31 12:00:00 12.9 7 Nordeste 14 Este 0 938.3 0.1 47
2019-03-31 11:00:00 9.1 6 Nordeste 15 Nordeste 0 938.5 0.7 59
2019-03-31 10:00:00 5.4 6 Nordeste 10 Nordeste 0 938.3 0.5 73
2019-03-31 09:00:00 2.6 3 Nordeste 11 Nordeste 0 938.2 0.1 81
2019-03-31 08:00:00 2.7 3 Nordeste 8 Norte 0 937.8 -0.7 80
2019-03-31 07:00:00 3.4 4 Nordeste 10 Nordeste 0 937.8 -0.9 78
2019-03-31 06:00:00 4.5 3 Norte 10 Nordeste 0 938.1 -1 74
2019-03-31 05:00:00 5.9 5 Norte 10 Norte 0 938.5 -1 69
2019-03-31 03:00:00 8.7 4 Noroeste 15 Norte 0 939.1 -0.9 60
2019-03-31 01:00:00 9.9 5 Norte 15 Sudeste 0 939.5 -0.4 55
2019-03-31 00:00:00 10.6 4 Norte 10 Norte 0 939.8 0.1 51
2019-03-30 23:00:00 11.1 3 Noroeste 6 Noroeste 0 940 0.6 46
2019-03-30 22:00:00 11.9 3 Nordeste 7 Nordeste 0 939.9 0.7 43
2019-03-30 21:00:00 13.8 3 Norte 8 Nordeste 0 939.7 0.7 39
2019-03-30 20:00:00 15.9 6 Nordeste 10 Este 0 939.4 0.3 33
2019-03-30 19:00:00 17.6 6 Este 16 Este 0 939.2 -0.6 27
2019-03-30 18:00:00 19.9 9 Este 22 Nordeste 0 939 -1.6 24
2019-03-30 17:00:00 20.7 3 Este 15 Este 0 939.1 -2.3 21
2019-03-30 16:00:00 20.8 6 Sudeste 17 Este 0 939.8 -2.4 20
2019-03-30 15:00:00 19.7 7 Nordeste 15 Nordeste 0 940.6 -2.3 29
2019-03-30 14:00:00 18.6 4 Nordeste 14 Norte 0 941.4 -1.9 30
2019-03-30 13:00:00 17.3 6 Norte 13 Norte 0 942.2 -1.3 34
2019-03-30 12:00:00 14.9 5 Este 11 Norte 0 942.9 -0.4 39
2019-03-30 11:00:00 11.4 3 Nordeste 8 Nordeste 0 943.3 0.2 48
2019-03-30 10:00:00 8.7 5 Nordeste 8 Nordeste 0 943.5 0.5 55
2019-03-30 09:00:00 6.2 5 Sur 8 Sur 0 943.3 0.3 60
2019-03-30 08:00:00 4.5 3 Norte 4 Noroeste 0 943.1 0.3 64
2019-03-30 07:00:00 3.8 2 Norte 5 Este 0 943 -0.1 63
2019-03-30 06:00:00 3.9 4 Sudeste 7 Sudeste 0 943 -0.2 64
2019-03-30 05:00:00 4.4 3 Este 6 Este 0 942.8 -0.5 60
2019-03-30 04:00:00 5.8 3 Sudeste 6 Este 0 943.1 -0.5 56
2019-03-30 03:00:00 7.3 5 Sur 9 Sur 0 943.2 -0.3 49
2019-03-30 02:00:00 8.5 4 Sur 8 Sur 0 943.3 -0.3 47
2019-03-30 01:00:00 9.6 4 Sur 9 Sur 0 943.6 0 41
2019-03-30 00:00:00 9.4 2 Nordeste 5 Norte 0 943.5 0.2 47
2019-03-29 23:00:00 11.7 3 Norte 10 Sur 0 943.6 0.7 42
2019-03-29 22:00:00 12.2 7 Sur 24 Sudeste 0 943.6 0.6 39
2019-03-29 21:00:00 13.9 3 Norte 6 Norte 0 943.3 0.5 37
2019-03-29 20:00:00 16.3 2 Sudoeste 9 Oeste 0 942.9 0 29
2019-03-29 19:00:00 17.6 4 Oeste 12 Este 0 943 -0.4 27
2019-03-29 18:00:00 19.2 5 Sur 16 Sur 0 942.8 -1.5 24
2019-03-29 17:00:00 20.5 8 Sudeste 15 Este 0 942.9 -2.2 24
2019-03-29 16:00:00 20.6 6 Sudeste 15 Sudeste 0 943.4 -2.5 25
2019-03-29 15:00:00 19.3 4 Nordeste 14 Norte 0 944.3 -2.3 30
2019-03-29 14:00:00 18.3 6 Sudoeste 11 Oeste 0 945.1 -1.9 33
2019-03-29 13:00:00 15.5 4 Noroeste 12 Este 0 945.9 -1.3 38
2019-03-29 12:00:00 13 3 Norte 11 Este 0 946.6 -0.6 44
2019-03-29 11:00:00 10.1 5 Nordeste 10 Nordeste 0 947 -0.1 54
2019-03-29 10:00:00 7.2 5 Norte 9 Norte 0 947.2 0.3 63
2019-03-29 09:00:00 4.3 3 Nordeste 7 Nordeste 0 947.2 0.5 70
2019-03-29 08:00:00 1.8 3 Nordeste 6 Norte 0 947.1 0.3 77
2019-03-29 07:00:00 1.9 4 Norte 8 Nordeste 0 946.9 0.1 77
2019-03-29 06:00:00 2.5 5 Norte 8 Nordeste 0 946.7 -0.4 76
2019-03-29 05:00:00 3.3 3 Nordeste 8 Nordeste 0 946.8 -0.5 73
2019-03-29 04:00:00 4.1 5 Norte 11 Norte 0 946.8 -0.7 73
2019-03-29 03:00:00 5 5 Norte 10 Norte 0 947.1 -0.6 72
2019-03-29 02:00:00 5.7 5 Norte 11 Norte 0 947.3 -0.4 68
2019-03-29 01:00:00 7.3 4 Norte 14 Norte 0 947.5 0.1 59
2019-03-29 00:00:00 8.5 5 Norte 12 Este 0 947.7 0.6 55
2019-03-28 23:00:00 9.6 5 Nordeste 13 Nordeste 0 947.7 1.1 53
2019-03-28 22:00:00 10.9 6 Nordeste 11 Este 0 947.4 0.8 47
2019-03-28 21:00:00 12.9 5 Norte 10 Norte 0 947.1 0.6 40
2019-03-28 20:00:00 15.2 3 Este 15 Este 0 946.6 -0.2 33
2019-03-28 19:00:00 17 11 Este 19 Sudeste 0 946.6 -0.8 28
2019-03-28 18:00:00 18.4 10 Este 21 Este 0 946.5 -1.6 27
2019-03-28 17:00:00 19.1 15 Este 25 Este 0 946.8 -2.1 27
2019-03-28 16:00:00 19 9 Nordeste 23 Nordeste 0 947.4 -2.3 30
2019-03-28 15:00:00 18.2 12 Este 24 Nordeste 0 948.1 -2.1 29
2019-03-28 14:00:00 17 13 Nordeste 24 Nordeste 0 948.9 -1.9 29
2019-03-28 13:00:00 15.8 14 Este 27 Este 0 949.7 -1.1 30
2019-03-28 12:00:00 14 9 Este 22 Nordeste 0 950.2 -0.8 39
2019-03-28 11:00:00 10.7 11 Nordeste 25 Nordeste 0 950.8 -0.1 50
2019-03-28 10:00:00 8.3 13 Nordeste 24 Nordeste 0 950.8 0.3 59
2019-03-28 09:00:00 4.9 9 Nordeste 15 Nordeste 0 951 0.8 69
2019-03-28 08:00:00 2.5 7 Norte 13 Nordeste 0 950.9 1.1 69
2019-03-28 07:00:00 2.4 9 Nordeste 18 Nordeste 0 950.5 0.6 65
2019-03-28 06:00:00 2.7 6 Nordeste 13 Nordeste 0 950.2 0.1 62
2019-03-28 05:00:00 3.6 7 Nordeste 16 Nordeste 0 949.8 -0.2 58
2019-03-28 04:00:00 4.1 9 Nordeste 14 Norte 0 949.9 -0.1 55
2019-03-28 03:00:00 4.7 5 Nordeste 13 Norte 0 950.1 0.8 51
2019-03-28 02:00:00 6.1 8 Nordeste 21 Este 0 950 0.9 47
2019-03-28 01:00:00 7.2 13 Nordeste 23 Nordeste 0 950 1.3 47
2019-03-28 00:00:00 8.4 13 Nordeste 30 Nordeste 0 949.3 1.2 43
2019-03-27 23:00:00 9.7 10 Nordeste 27 Nordeste 0 949.1 1.9 43
2019-03-27 22:00:00 11 6 Este 22 Este 0 948.7 2.1 41
2019-03-27 21:00:00 13 11 Sudeste 32 Nordeste 0 948.1 2 32
2019-03-27 20:00:00 14.6 18 Nordeste 32 Nordeste 0 947.2 1.3 22
2019-03-27 19:00:00 16.6 18 Nordeste 36 Este 0 946.6 0.3 20
2019-03-27 18:00:00 18.6 21 Nordeste 38 Nordeste 0 946.1 -0.6 17
2019-03-27 17:00:00 19.8 19 Nordeste 35 Nordeste 0 945.9 -1.6 15
2019-03-27 16:00:00 20 17 Nordeste 31 Nordeste 0 946.3 -1.8 16
2019-03-27 15:00:00 19.4 12 Nordeste 24 Nordeste 0 946.7 -1.7 20
2019-03-27 14:00:00 16.9 11 Nordeste 25 Nordeste 0 947.5 -1.1 26
2019-03-27 13:00:00 15.2 10 Nordeste 25 Norte 0 948.1 -0.6 29
2019-03-27 12:00:00 13.2 14 Nordeste 23 Nordeste 0 948.4 -0.2 35
2019-03-27 11:00:00 10.4 11 Nordeste 23 Nordeste 0 948.6 0.4 42
2019-03-27 10:00:00 7.6 14 Nordeste 26 Nordeste 0 948.7 1.2 54
2019-03-27 09:00:00 4.9 12 Nordeste 22 Nordeste 0 948.6 1.4 65
2019-03-27 08:00:00 1.6 6 Norte 17 Norte 0 948.2 1.3 78
2019-03-27 07:00:00 1.4 7 Norte 15 Nordeste 0 947.5 0.7 76
2019-03-27 06:00:00 2 9 Nordeste 17 Norte 0 947.2 0.7 70
2019-03-27 05:00:00 2.3 8 Norte 15 Norte 0 946.9 0.1 65
2019-03-27 04:00:00 3.2 6 Norte 22 Norte 0 946.8 0.2 59
2019-03-27 03:00:00 3.6 12 Nordeste 22 Norte 0 946.5 0.7 55
2019-03-27 02:00:00 4.2 9 Norte 21 Nordeste 0 946.8 1.2 47
2019-03-27 01:00:00 5.4 10 Norte 27 Este 0 946.6 1.7 40
2019-03-27 00:00:00 6.5 13 Este 26 Nordeste 0 945.8 1.6 35
2019-03-26 23:00:00 7.9 14 Nordeste 28 Este 0 945.6 2.4 30
2019-03-26 22:00:00 9.2 13 Nordeste 30 Nordeste 0 944.9 2.3 28
2019-03-26 21:00:00 10.7 14 Este 31 Este 0 944.2 2 27
2019-03-26 20:00:00 12.8 15 Nordeste 35 Nordeste 0 943.2 1 23
2019-03-26 19:00:00 15.4 19 Nordeste 49 Nordeste 0 942.6 0.2 19
2019-03-26 18:00:00 17.6 26 Nordeste 45 Nordeste 0 942.2 -0.8 18
2019-03-26 17:00:00 19.1 22 Nordeste 35 Nordeste 0 942.2 -1.3 17
2019-03-26 16:00:00 19.4 19 Este 37 Sudeste 0 942.4 -1.7 19
2019-03-26 15:00:00 18.4 20 Este 41 Sudeste 0 943 -1.8 22
2019-03-26 14:00:00 17 19 Este 37 Nordeste 0 943.5 -1.8 23
2019-03-26 13:00:00 14.8 21 Nordeste 39 Nordeste 0 944.1 -1.6 27
2019-03-26 12:00:00 11.6 23 Nordeste 43 Este 0 944.8 -0.8 37
2019-03-26 11:00:00 9.5 25 Nordeste 39 Nordeste 0 945.3 -0.4 48
2019-03-26 10:00:00 7.9 21 Nordeste 37 Nordeste 0 945.7 0.2 55
2019-03-26 09:00:00 5.3 15 Nordeste 25 Nordeste 0 945.6 0.1 73
2019-03-26 08:00:00 2.6 5 Nordeste 14 Nordeste 0 945.7 0.1 85
2019-03-26 07:00:00 2.4 7 Nordeste 15 Nordeste 0 945.5 -0.5 84
2019-03-26 06:00:00 2.5 6 Nordeste 15 Nordeste 0 945.5 -1.1 83
2019-03-26 05:00:00 2.6 10 Nordeste 21 Nordeste 0 945.6 -1 79
2019-03-26 04:00:00 3.3 8 Nordeste 23 Nordeste 0 946 -0.9 75
2019-03-26 03:00:00 4.1 17 Nordeste 33 Este 0 946.6 -0.2 72
2019-03-26 02:00:00 4.3 13 Nordeste 25 Nordeste 0 946.6 0 72
2019-03-26 01:00:00 5.2 15 Nordeste 31 Nordeste 0 946.9 1 71
2019-03-26 00:00:00 6.1 15 Nordeste 24 Este 0 946.8 1.4 65
2019-03-25 23:00:00 7 7 Este 22 Este 0 946.6 1.6 62
2019-03-25 22:00:00 8.2 8 Nordeste 33 Nordeste 0 945.9 1.2 59
2019-03-25 21:00:00 9.9 13 Nordeste 32 Nordeste 0 945.4 0.9 51
2019-03-25 20:00:00 11.7 16 Nordeste 40 Este 0 945 0.2 45
2019-03-25 19:00:00 13.6 24 Nordeste 39 Nordeste 0 944.7 -0.4 39
2019-03-25 18:00:00 15.5 21 Nordeste 40 Este 0 944.5 -1.1 36
2019-03-25 17:00:00 16.8 20 Este 36 Nordeste 0 944.8 -1.7 37
2019-03-25 16:00:00 17.3 20 Nordeste 37 Nordeste 0 945.1 -2 33
2019-03-25 15:00:00 17 19 Nordeste 36 Nordeste 0 945.6 -2 36
2019-03-25 14:00:00 16.6 19 Este 38 Nordeste 0 946.5 -1.5 32
2019-03-25 13:00:00 15.6 20 Nordeste 34 Nordeste 0 947.1 -0.9 45
2019-03-25 12:00:00 14.1 17 Nordeste 32 Nordeste 0 947.6 -0.4 51
2019-03-25 11:00:00 12.8 16 Nordeste 32 Nordeste 0 948 0.4 55
2019-03-25 10:00:00 10.2 15 Nordeste 26 Nordeste 0 948 0.9 67
2019-03-25 09:00:00 6.7 12 Nordeste 21 Este 0 948 1 79
2019-03-25 08:00:00 4.8 8 Nordeste 19 Norte 0 947.6 0.8 81
2019-03-25 07:00:00 5.2 10 Nordeste 21 Nordeste 0 947.1 0 78
2019-03-25 06:00:00 5.7 14 Norte 24 Norte 0 947 -0.3 77
2019-03-25 05:00:00 6.2 11 Norte 21 Norte 0 946.8 -0.6 79
2019-03-25 04:00:00 6.5 11 Norte 20 Norte 0 947.1 -0.2 81
2019-03-25 03:00:00 7.5 5 Noroeste 19 Norte 0 947.3 0 79
2019-03-25 02:00:00 9.2 4 Noroeste 25 Nordeste 0 947.4 0.7 73
2019-03-25 01:00:00 10.3 10 Nordeste 20 Nordeste 0 947.3 1 70
2019-03-25 00:00:00 11.7 5 Nordeste 23 Norte 0 947.3 1.8 64
2019-03-24 23:00:00 12.4 8 Norte 18 Este 0 946.7 1.6 59
2019-03-24 22:00:00 12.6 4 Norte 14 Este 0 946.3 1.4 46
2019-03-24 21:00:00 13.6 4 Noroeste 10 Norte 0 945.5 0.6 39
2019-03-24 20:00:00 16.5 5 Norte 16 Nordeste 0 945.1 0.1 32
2019-03-24 19:00:00 19 10 Este 20 Este 0 944.9 -0.6 22
2019-03-24 18:00:00 20.6 13 Este 28 Nordeste 0 944.9 -1.1 19
2019-03-24 17:00:00 21.3 13 Nordeste 28 Nordeste 0 945 -1.8 24
2019-03-24 16:00:00 21.7 15 Este 29 Nordeste 0 945.5 -2.3 20
2019-03-24 15:00:00 21.2 13 Nordeste 29 Nordeste 0 946 -2.5 21
2019-03-24 14:00:00 20 12 Nordeste 27 Nordeste 0 946.8 -2.1 34
2019-03-24 13:00:00 18.3 9 Nordeste 20 Este 0 947.8 -1.2 42
2019-03-24 12:00:00 16.1 8 Nordeste 17 Nordeste 0 948.5 -0.2 48
2019-03-24 11:00:00 12.9 5 Nordeste 15 Nordeste 0 948.9 0.6 57
2019-03-24 10:00:00 9.6 9 Nordeste 16 Este 0 949 1.2 68
2019-03-24 09:00:00 5.8 7 Nordeste 10 Este 0 948.7 1.1 79
2019-03-24 08:00:00 3.1 3 Nordeste 8 Nordeste 0 948.3 1.1 85
2019-03-24 07:00:00 3.2 4 Nordeste 7 Norte 0 947.8 0.7 83
2019-03-24 06:00:00 4 5 Nordeste 10 Norte 0 947.6 0.6 80
2019-03-24 05:00:00 4.7 4 Norte 8 Norte 0 947.2 0.3 76
2019-03-24 04:00:00 5.5 3 Norte 8 Norte 0 947.1 0.2 73
2019-03-24 03:00:00 6.5 2 Norte 5 Nordeste 0 947 0.2 69
2019-03-24 02:00:00 7.8 4 Norte 10 Norte 0 946.9 0.1 63
2019-03-24 01:00:00 8.9 6 Norte 9 Norte 0 946.9 0.3 59
2019-03-24 00:00:00 9.8 5 Noroeste 14 Norte 0 946.8 0.5 58
2019-03-23 23:00:00 11.3 3 Este 15 Norte 0 946.8 0.8 53
2019-03-23 22:00:00 11.9 5 Norte 14 Norte 0 946.6 0.7 50
2019-03-23 21:00:00 13.3 8 Norte 16 Norte 0 946.3 0.4 47
2019-03-23 20:00:00 15.5 11 Norte 17 Norte 0 946 0 41
2019-03-23 19:00:00 17.9 8 Norte 17 Norte 0 945.9 -0.4 32
2019-03-23 18:00:00 19.3 11 Nordeste 22 Este 0 945.9 -1.2 28
2019-03-23 17:00:00 20.9 9 Este 22 Este 0 946 -1.8 27
2019-03-23 16:00:00 21.2 8 Este 22 Sur 0 946.3 -2.5 26
2019-03-23 15:00:00 20.5 8 Este 23 Este 0 947.1 -2.5 26
2019-03-23 14:00:00 19.4 12 Sudeste 21 Sur 0 947.8 -2.3 31
2019-03-23 13:00:00 16.7 9 Nordeste 16 Nordeste 0 948.8 -1.5 43
2019-03-23 12:00:00 13.9 8 Este 16 Este 0 949.6 -0.8 53
2019-03-23 11:00:00 10.1 5 Nordeste 14 Nordeste 0 950.1 0.1 57
2019-03-23 10:00:00 6.4 7 Nordeste 14 Nordeste 0 950.3 0.6 68
2019-03-23 09:00:00 3 9 Nordeste 13 Nordeste 0 950.4 0.8 76
2019-03-23 08:00:00 1 5 Norte 12 Nordeste 0 950 0.6 80
2019-03-23 07:00:00 1 4 Norte 9 Nordeste 0 949.7 0.2 80
2019-03-23 06:00:00 1.5 4 Nordeste 9 Nordeste 0 949.6 0 79
2019-03-23 05:00:00 2.2 6 Nordeste 10 Este 0 949.4 -0.3 76
2019-03-23 04:00:00 3 3 Noroeste 8 Este 0 949.5 0 74
2019-03-23 03:00:00 4.1 3 Norte 7 Nordeste 0 949.6 -0.1 69
2019-03-23 02:00:00 5.6 4 Nordeste 7 Nordeste 0 949.7 0 61
2019-03-23 01:00:00 6.9 4 Noroeste 7 Oeste 0 949.5 0.1 56
2019-03-23 00:00:00 7.3 3 Noroeste 8 Este 0 949.7 0.7 55
2019-03-22 23:00:00 8.4 2 Este 4 Norte 0 949.7 1 50
2019-03-22 22:00:00 9.7 2 Nordeste 5 Nordeste 0 949.4 1.1 48
2019-03-22 21:00:00 11 3 Norte 9 Norte 0 949 0.8 45
2019-03-22 20:00:00 13 3 Noroeste 10 Norte 0 948.7 0.3 40
2019-03-22 19:00:00 15.2 7 Norte 18 Norte 0 948.3 -0.4 32
2019-03-22 18:00:00 16.7 6 Norte 19 Nordeste 0 948.2 -0.8 29
2019-03-22 17:00:00 18.1 4 Este 17 Norte 0 948.4 -1.3 28
2019-03-22 16:00:00 17.8 7 Norte 21 Norte 0 948.7 -1.8 28
2019-03-22 15:00:00 17.4 5 Nordeste 15 Este 0 949 -1.9 29
2019-03-22 14:00:00 16.3 6 Nordeste 19 Nordeste 0 949.7 -1.4 31
2019-03-22 13:00:00 14.2 5 Nordeste 13 Este 0 950.5 -0.7 42
2019-03-22 12:00:00 11.5 6 Nordeste 14 Nordeste 0 950.9 -0.1 53
2019-03-22 11:00:00 8.5 5 Nordeste 12 Nordeste 0 951.1 0.4 65
2019-03-22 10:00:00 5.4 6 Este 10 Este 0 951.2 0.9 75
2019-03-22 09:00:00 2 4 Nordeste 9 Nordeste 0 951 1.1 83
2019-03-22 08:00:00 0.2 4 Norte 7 Norte 0 950.7 1.1 86
2019-03-22 07:00:00 0.1 3 Nordeste 7 Nordeste 0 950.3 0.7 87
2019-03-22 06:00:00 0.5 3 Nordeste 6 Nordeste 0 949.9 0.5 85
2019-03-22 05:00:00 0.9 4 Norte 9 Nordeste 0 949.6 0.4 83
2019-03-22 04:00:00 2 4 Norte 9 Norte 0 949.6 0.3 77
2019-03-22 03:00:00 2.5 5 Noroeste 9 Norte 0 949.4 0 76
2019-03-22 02:00:00 3.6 3 Norte 4 Norte 0 949.2 0.2 70
2019-03-22 01:00:00 4.2 0 Calma 9 Nordeste 0 949.3 0.8 68
2019-03-22 00:00:00 5.6 3 Nordeste 8 Este 0 949.4 1 62
2019-03-21 23:00:00 7 2 Nordeste 4 Noroeste 0 949 0.9 56
2019-03-21 22:00:00 8.5 0 Calma 5 Oeste 0 948.5 0.8 50
2019-03-21 21:00:00 9.7 0 Calma 8 Norte 0 948.4 0.9 47
2019-03-21 20:00:00 11.5 3 Norte 9 Norte 0 948.1 0.1 42
2019-03-21 19:00:00 12.9 5 Nordeste 15 Nordeste 0 947.7 -0.7 38
2019-03-21 18:00:00 14.6 8 Norte 15 Norte 0 947.5 -1.6 31
2019-03-21 17:00:00 15.5 6 Norte 16 Norte 0 948 -1.9 29
2019-03-21 16:00:00 15.5 8 Norte 19 Norte 0 948.4 -2.2 32
2019-03-21 15:00:00 15.1 6 Nordeste 18 Norte 0 949.1 -1.9 35
2019-03-21 14:00:00 14 9 Nordeste 20 Norte 0 949.9 -1.7 37
2019-03-21 13:00:00 12.6 8 Nordeste 20 Nordeste 0 950.6 -1.2 47
2019-03-21 12:00:00 10.6 6 Nordeste 17 Nordeste 0 951 -0.8 55
2019-03-21 11:00:00 7.3 9 Nordeste 18 Nordeste 0 951.6 -0.2 65
2019-03-21 10:00:00 4.6 8 Nordeste 14 Nordeste 0 951.8 0.2 75
2019-03-21 09:00:00 1.7 7 Nordeste 12 Nordeste 0 951.8 0.4 84
2019-03-21 08:00:00 0 3 Norte 9 Nordeste 0 951.8 0.9 88
2019-03-21 07:00:00 0 5 Nordeste 11 Nordeste 0 951.6 0.7 88
2019-03-21 06:00:00 0.3 4 Nordeste 15 Nordeste 0 951.4 0.2 85
2019-03-21 05:00:00 0.7 8 Norte 16 Norte 0 950.9 -0.4 83
2019-03-21 04:00:00 0.9 8 Norte 15 Norte 0 950.9 -0.5 79
2019-03-21 03:00:00 2 9 Norte 19 Nordeste 0 951.2 -0.2 73
2019-03-21 02:00:00 2.5 8 Norte 15 Norte 0 951.3 0 70
2019-03-21 01:00:00 3.5 7 Nordeste 14 Nordeste 0 951.4 0.3 68
2019-03-21 00:00:00 4.5 5 Norte 21 Nordeste 0 951.4 0.7 65
2019-03-20 23:00:00 5.9 13 Nordeste 20 Nordeste 0 951.3 1.3 59
2019-03-20 22:00:00 6.8 10 Nordeste 23 Este 0 951.1 1.1 51
2019-03-20 21:00:00 8 8 Nordeste 21 Nordeste 0 950.7 1.3 50
2019-03-20 20:00:00 10 13 Nordeste 25 Nordeste 0 950 0.5 44
2019-03-20 19:00:00 11.9 16 Nordeste 30 Nordeste 0 950 0.1 39
2019-03-20 18:00:00 13.1 15 Nordeste 32 Nordeste 0 949.4 -1.2 37
2019-03-20 17:00:00 14.1 17 Nordeste 33 Nordeste 0 949.5 -1.8 35
2019-03-20 16:00:00 14.1 18 Nordeste 37 Nordeste 0 949.9 -2.1 36
2019-03-20 15:00:00 13.9 18 Este 33 Nordeste 0 950.6 -2.2 40
2019-03-20 14:00:00 12.8 18 Nordeste 36 Este 0 951.3 -1.8 44
2019-03-20 13:00:00 11.5 22 Este 35 Este 0 952 -1.1 53
2019-03-20 12:00:00 9.7 20 Este 33 Nordeste 0 952.8 0 60
2019-03-20 11:00:00 7.5 10 Nordeste 22 Nordeste 0 953.1 0.5 70
2019-03-20 10:00:00 5.8 7 Nordeste 12 Nordeste 0 953.1 0.9 81
2019-03-20 09:00:00 2.1 5 Nordeste 9 Nordeste 0 952.8 1 91
2019-03-20 08:00:00 0.4 4 Nordeste 10 Nordeste 0 952.6 0.7 92
2019-03-20 07:00:00 0.7 4 Nordeste 7 Nordeste 0 952.2 0.1 89
2019-03-20 06:00:00 1.5 3 Nordeste 7 Nordeste 0 951.8 -0.7 86
2019-03-20 05:00:00 2.5 3 Nordeste 10 Nordeste 0 951.9 -0.8 85
2019-03-20 04:00:00 3.1 5 Nordeste 16 Sudeste 0 952.1 -0.6 83
2019-03-20 03:00:00 3.4 4 Nordeste 8 Nordeste 0 952.5 0 82
2019-03-20 02:00:00 4.4 5 Nordeste 9 Nordeste 0 952.7 0.7 79
2019-03-20 01:00:00 5.4 4 Nordeste 15 Este 0 952.7 1.5 75
2019-03-20 00:00:00 6.4 9 Este 22 Este 0 952.5 1.9 71
2019-03-19 23:00:00 7.7 12 Este 22 Este 0 952 2.3 66
2019-03-19 22:00:00 8.8 11 Este 19 Nordeste 0 951.2 2.1 62
2019-03-19 21:00:00 9.8 8 Este 21 Este 0 950.6 1.9 59
2019-03-19 20:00:00 11.5 12 Este 21 Este 0 949.7 0.8 53
2019-03-19 19:00:00 13.4 10 Este 21 Este 0 949.1 -0.1 45
2019-03-19 18:00:00 14.4 9 Nordeste 21 Nordeste 0 948.7 -0.8 43
2019-03-19 17:00:00 15.4 11 Nordeste 25 Este 0 948.9 -1.2 39
2019-03-19 16:00:00 15.3 5 Nordeste 21 Nordeste 0 949.2 -1.4 42
2019-03-19 15:00:00 14.9 9 Nordeste 24 Norte 0 949.5 -1.3 42
2019-03-19 14:00:00 13.9 9 Nordeste 19 Nordeste 0 950.1 -0.9 47
2019-03-19 13:00:00 12.4 8 Este 17 Este 0 950.6 0 49
2019-03-19 12:00:00 10.9 9 Este 17 Nordeste 0 950.8 0 57
2019-03-19 11:00:00 9 9 Este 15 Este 0 951 0.5 59
2019-03-19 10:00:00 5.6 5 Nordeste 8 Norte 0 950.6 0.6 77
2019-03-19 09:00:00 2.3 4 Norte 6 Nordeste 0 950.8 1 87
2019-03-19 08:00:00 0.7 2 Nordeste 5 Nordeste 0 950.5 0.7 89
2019-03-19 07:00:00 0.7 2 Nordeste 6 Nordeste 0 950 0.2 88
2019-03-19 06:00:00 1 3 Norte 6 Nordeste 0 949.8 -0.4 86
2019-03-19 05:00:00 1.5 2 Norte 7 Nordeste 0 949.8 -0.6 84
2019-03-19 04:00:00 2.1 3 Nordeste 4 Nordeste 0 949.8 -0.3 82
2019-03-19 03:00:00 2.7 3 Noroeste 5 Norte 0 950.2 0.1 80
2019-03-19 02:00:00 3.1 4 Nordeste 8 Nordeste 0 950.4 0.6 76
2019-03-19 01:00:00 3.7 3 Nordeste 10 Nordeste 0 950.1 0.5 75
2019-03-19 00:00:00 4 7 Nordeste 13 Nordeste 0 950.1 1 74